createdAt,value
2019-04-16T00:00:13.159Z,0.00
2019-04-16T00:01:13.924Z,0.00
2019-04-16T00:02:13.127Z,0.00
2019-04-16T00:03:13.178Z,0.00
2019-04-16T00:04:13.104Z,0.00
2019-04-16T00:05:13.246Z,0.00
2019-04-16T00:06:13.126Z,0.00
2019-04-16T00:07:13.160Z,0.00
2019-04-16T00:08:27.483Z,0.00
2019-04-16T00:09:14.130Z,0.00
2019-04-16T00:10:13.939Z,0.00
2019-04-16T00:11:13.108Z,0.00
2019-04-16T00:12:14.141Z,0.00
2019-04-16T00:13:13.043Z,0.00
2019-04-16T00:14:13.092Z,0.00
2019-04-16T00:15:13.946Z,0.00
2019-04-16T00:16:13.698Z,0.00
2019-04-16T00:17:13.179Z,0.00
2019-04-16T00:18:13.007Z,0.00
2019-04-16T00:19:13.029Z,0.00
2019-04-16T00:20:13.472Z,0.00
2019-04-16T00:21:12.994Z,0.00
2019-04-16T00:22:12.952Z,0.00
2019-04-16T00:23:12.954Z,0.00
2019-04-16T00:24:12.994Z,0.00
2019-04-16T00:25:12.969Z,0.00
2019-04-16T00:26:13.577Z,0.00
2019-04-16T00:27:12.869Z,0.00
2019-04-16T00:28:12.872Z,0.00
2019-04-16T00:29:12.903Z,0.00
2019-04-16T00:30:12.895Z,0.00
2019-04-16T00:31:12.974Z,0.00
2019-04-16T00:32:12.860Z,0.00
2019-04-16T00:33:12.992Z,0.00
2019-04-16T00:34:14.271Z,0.00
2019-04-16T00:35:15.403Z,0.00
2019-04-16T00:36:15.317Z,0.00
2019-04-16T00:37:13.818Z,0.00
2019-04-16T00:38:12.748Z,0.00
2019-04-16T00:39:12.770Z,0.00
2019-04-16T00:40:12.746Z,0.00
2019-04-16T00:41:12.771Z,0.00
2019-04-16T00:42:12.768Z,0.00
2019-04-16T00:43:12.734Z,0.00
2019-04-16T00:44:13.462Z,0.00
2019-04-16T00:45:12.747Z,0.00
2019-04-16T00:46:12.696Z,0.00
2019-04-16T00:47:12.772Z,0.00
2019-04-16T00:48:12.673Z,0.00
2019-04-16T00:49:12.640Z,0.00
2019-04-16T00:50:12.743Z,0.00
2019-04-16T00:51:12.682Z,0.00
2019-04-16T00:52:12.608Z,0.00
2019-04-16T00:53:12.660Z,0.00
2019-04-16T00:54:12.664Z,0.00
2019-04-16T00:55:14.537Z,0.00
2019-04-16T00:56:13.470Z,0.00
2019-04-16T00:57:12.670Z,0.00
2019-04-16T00:58:12.649Z,0.00
2019-04-16T00:59:12.580Z,0.00
2019-04-16T01:00:12.550Z,0.00
2019-04-16T01:01:12.595Z,0.00
2019-04-16T01:02:12.675Z,0.00
2019-04-16T01:03:13.093Z,0.00
2019-04-16T01:04:12.576Z,0.00
2019-04-16T01:05:12.515Z,0.00
2019-04-16T01:06:12.536Z,0.00
2019-04-16T01:07:12.493Z,0.00
2019-04-16T01:08:12.533Z,0.00
2019-04-16T01:09:12.551Z,0.00
2019-04-16T01:10:13.037Z,0.00
2019-04-16T01:11:12.503Z,0.00
2019-04-16T01:12:12.942Z,0.00
2019-04-16T01:13:12.580Z,0.00
2019-04-16T01:14:12.441Z,0.00
2019-04-16T01:15:12.460Z,0.00
2019-04-16T01:16:12.389Z,0.00
2019-04-16T01:17:12.951Z,0.00
2019-04-16T01:18:12.481Z,0.00
2019-04-16T01:19:12.420Z,0.00
2019-04-16T01:20:13.026Z,0.00
2019-04-16T01:21:14.272Z,0.00
2019-04-16T01:22:15.741Z,0.00
2019-04-16T01:23:12.375Z,0.00
2019-04-16T01:24:12.313Z,0.00
2019-04-16T01:25:12.294Z,0.00
2019-04-16T01:26:12.366Z,0.00
2019-04-16T01:27:12.262Z,0.00
2019-04-16T01:28:12.308Z,0.00
2019-04-16T01:29:12.238Z,0.00
2019-04-16T01:30:12.246Z,0.00
2019-04-16T01:31:12.263Z,0.00
2019-04-16T01:32:12.303Z,0.00
2019-04-16T01:33:14.774Z,0.00
2019-04-16T01:34:12.220Z,0.00
2019-04-16T01:35:12.174Z,0.00
2019-04-16T01:36:12.203Z,0.00
2019-04-16T01:37:12.240Z,0.00
2019-04-16T01:38:12.232Z,0.00
2019-04-16T01:39:17.991Z,0.00
2019-04-16T01:40:18.314Z,0.00
2019-04-16T01:42:24.161Z,0.00
2019-04-16T01:43:25.784Z,0.00
2019-04-16T01:44:23.240Z,0.00
2019-04-16T01:45:23.228Z,0.00
2019-04-16T01:46:23.247Z,0.00
2019-04-16T01:47:23.210Z,0.00
2019-04-16T01:48:23.207Z,0.00
2019-04-16T01:49:23.218Z,0.00
2019-04-16T01:50:23.163Z,0.00
2019-04-16T01:51:23.184Z,0.00
2019-04-16T01:52:23.158Z,0.00
2019-04-16T01:53:23.134Z,0.00
2019-04-16T01:54:23.487Z,0.00
2019-04-16T01:55:25.620Z,0.00
2019-04-16T01:56:27.956Z,0.00
2019-04-16T01:57:25.006Z,0.00
2019-04-16T01:58:23.093Z,0.00
2019-04-16T01:59:24.021Z,0.00
2019-04-16T02:00:23.090Z,0.00
2019-04-16T02:01:24.006Z,0.00
2019-04-16T02:02:23.073Z,0.00
2019-04-16T02:03:23.051Z,0.00
2019-04-16T02:04:23.031Z,0.00
2019-04-16T02:05:23.298Z,0.00
2019-04-16T02:06:25.597Z,0.00
2019-04-16T02:07:27.696Z,0.00
2019-04-16T02:08:23.040Z,0.00
2019-04-16T02:09:23.173Z,0.00
2019-04-16T02:10:23.019Z,0.00
2019-04-16T02:11:22.971Z,0.00
2019-04-16T02:12:23.063Z,0.00
2019-04-16T02:13:22.986Z,0.00
2019-04-16T02:14:22.940Z,0.00
2019-04-16T02:15:23.006Z,0.00
2019-04-16T02:16:25.260Z,0.00
2019-04-16T02:17:26.762Z,0.00
2019-04-16T02:18:22.901Z,0.00
2019-04-16T02:19:22.875Z,0.00
2019-04-16T02:20:23.508Z,0.00
2019-04-16T02:21:22.935Z,0.00
2019-04-16T02:22:22.923Z,0.00
2019-04-16T02:23:22.848Z,0.00
2019-04-16T02:24:22.903Z,0.00
2019-04-16T02:25:22.808Z,0.00
2019-04-16T02:26:23.505Z,0.00
2019-04-16T02:27:23.487Z,0.00
2019-04-16T02:28:28.031Z,0.00
2019-04-16T02:29:23.833Z,0.00
2019-04-16T02:30:23.511Z,0.00
2019-04-16T02:31:22.872Z,0.00
2019-04-16T02:32:22.773Z,0.00
2019-04-16T02:33:22.769Z,0.00
2019-04-16T02:34:22.829Z,0.00
2019-04-16T02:35:22.775Z,0.00
2019-04-16T02:36:22.876Z,0.00
2019-04-16T02:37:22.894Z,0.00
2019-04-16T02:38:22.749Z,0.00
2019-04-16T02:39:46.258Z,0.00
2019-04-16T02:40:23.682Z,0.00
2019-04-16T02:41:24.503Z,0.00
2019-04-16T02:42:22.708Z,0.00
2019-04-16T02:43:22.637Z,0.00
2019-04-16T02:44:22.743Z,0.00
2019-04-16T02:45:24.362Z,0.00
2019-04-16T02:46:22.651Z,0.00
2019-04-16T02:47:22.792Z,0.00
2019-04-16T02:48:22.597Z,0.00
2019-04-16T02:49:24.433Z,0.00
2019-04-16T02:50:22.563Z,0.00
2019-04-16T02:51:22.687Z,0.00
2019-04-16T02:52:22.590Z,0.00
2019-04-16T02:53:24.537Z,0.00
2019-04-16T02:54:22.542Z,0.00
2019-04-16T02:55:22.624Z,0.00
2019-04-16T02:56:22.506Z,0.00
2019-04-16T02:57:26.576Z,0.00
2019-04-16T02:58:23.553Z,0.00
2019-04-16T02:59:22.487Z,0.00
2019-04-16T03:00:22.509Z,0.00
2019-04-16T03:01:23.013Z,0.00
2019-04-16T03:02:23.187Z,0.00
2019-04-16T03:03:24.881Z,0.00
2019-04-16T03:04:26.758Z,0.00
2019-04-16T03:05:22.511Z,0.00
2019-04-16T03:06:22.394Z,0.00
2019-04-16T03:07:22.438Z,0.00
2019-04-16T03:08:22.658Z,0.00
2019-04-16T03:09:22.467Z,0.00
2019-04-16T03:10:23.017Z,0.00
2019-04-16T03:11:23.014Z,0.00
2019-04-16T03:12:22.440Z,0.00
2019-04-16T03:13:23.247Z,0.00
2019-04-16T03:14:22.394Z,0.00
2019-04-16T03:15:22.336Z,0.00
2019-04-16T03:16:22.378Z,0.00
2019-04-16T03:17:22.336Z,0.00
2019-04-16T03:18:22.367Z,0.00
2019-04-16T03:19:22.308Z,0.00
2019-04-16T03:20:23.910Z,0.00
2019-04-16T03:21:24.525Z,0.00
2019-04-16T03:22:23.203Z,0.00
2019-04-16T03:23:22.240Z,0.00
2019-04-16T03:24:22.241Z,0.00
2019-04-16T03:25:22.238Z,0.00
2019-04-16T03:26:22.194Z,0.00
2019-04-16T03:27:22.995Z,0.00
2019-04-16T03:28:23.569Z,0.00
2019-04-16T03:29:22.249Z,0.00
2019-04-16T03:30:22.421Z,0.00
2019-04-16T03:31:23.484Z,0.00
2019-04-16T03:32:22.097Z,0.00
2019-04-16T03:33:22.117Z,0.00
2019-04-16T03:34:22.701Z,0.00
2019-04-16T03:35:25.326Z,0.00
2019-04-16T03:36:22.225Z,0.00
2019-04-16T03:37:22.113Z,0.00
2019-04-16T03:38:22.073Z,0.00
2019-04-16T03:39:22.124Z,0.00
2019-04-16T03:40:25.463Z,0.00
2019-04-16T03:41:25.057Z,0.00
2019-04-16T03:42:24.521Z,0.00
2019-04-16T03:43:23.103Z,0.00
2019-04-16T03:44:22.034Z,0.00
2019-04-16T03:45:22.019Z,0.00
2019-04-16T03:46:22.044Z,0.00
2019-04-16T03:47:22.031Z,0.00
2019-04-16T03:48:23.486Z,0.00
2019-04-16T03:49:24.584Z,0.00
2019-04-16T03:50:22.932Z,0.00
2019-04-16T03:51:21.929Z,0.00
2019-04-16T03:52:21.966Z,0.00
2019-04-16T03:53:21.878Z,0.00
2019-04-16T03:54:22.624Z,0.00
2019-04-16T03:55:25.040Z,0.00
2019-04-16T03:56:21.878Z,0.00
2019-04-16T03:57:21.914Z,0.00
2019-04-16T03:58:21.834Z,0.00
2019-04-16T03:59:21.838Z,0.00
2019-04-16T04:00:21.818Z,0.00
2019-04-16T04:01:21.907Z,0.00
2019-04-16T04:02:23.012Z,5.62
2019-04-16T04:03:25.881Z,5.62
2019-04-16T04:04:21.835Z,5.62
2019-04-16T04:05:21.784Z,5.62
2019-04-16T04:06:21.786Z,5.62
2019-04-16T04:07:21.774Z,5.62
2019-04-16T04:08:21.798Z,5.62
2019-04-16T04:09:22.320Z,5.62
2019-04-16T04:10:30.451Z,11.25
2019-04-16T04:11:22.701Z,11.25
2019-04-16T04:12:21.829Z,11.25
2019-04-16T04:13:21.791Z,11.25
2019-04-16T04:14:23.470Z,11.25
2019-04-16T04:15:25.827Z,11.25
2019-04-16T04:16:22.681Z,16.88
2019-04-16T04:17:21.680Z,16.88
2019-04-16T04:18:21.679Z,16.88
2019-04-16T04:19:21.659Z,16.88
2019-04-16T04:20:21.654Z,16.88
2019-04-16T04:21:22.658Z,22.50
2019-04-16T04:22:22.761Z,22.50
2019-04-16T04:23:21.630Z,22.50
2019-04-16T04:24:21.623Z,22.50
2019-04-16T04:25:21.586Z,28.12
2019-04-16T04:26:21.569Z,28.12
2019-04-16T04:27:21.690Z,28.12
2019-04-16T04:28:21.554Z,28.12
2019-04-16T04:29:24.767Z,33.75
2019-04-16T04:30:21.516Z,33.75
2019-04-16T04:31:21.565Z,33.75
2019-04-16T04:32:21.538Z,39.38
2019-04-16T04:33:21.514Z,39.38
2019-04-16T04:34:21.494Z,39.38
2019-04-16T04:35:22.322Z,39.38
2019-04-16T04:36:22.968Z,39.38
2019-04-16T04:37:22.452Z,45.00
2019-04-16T04:38:21.465Z,45.00
2019-04-16T04:39:21.451Z,50.62
2019-04-16T04:40:21.462Z,50.62
2019-04-16T04:41:23.025Z,50.62
2019-04-16T04:42:21.575Z,50.62
2019-04-16T04:43:21.416Z,50.62
2019-04-16T04:44:21.503Z,50.62
2019-04-16T04:45:22.171Z,50.62
2019-04-16T04:46:21.409Z,50.62
2019-04-16T04:47:21.351Z,56.25
2019-04-16T04:48:24.065Z,56.25
2019-04-16T04:49:21.358Z,61.88
2019-04-16T04:50:21.354Z,67.50
2019-04-16T04:51:21.341Z,73.12
2019-04-16T04:52:21.326Z,73.12
2019-04-16T04:53:21.285Z,73.12
2019-04-16T04:54:22.554Z,73.12
2019-04-16T04:55:25.630Z,78.75
2019-04-16T04:56:21.401Z,84.38
2019-04-16T04:57:21.404Z,84.38
2019-04-16T04:58:21.293Z,84.38
2019-04-16T04:59:21.324Z,84.38
2019-04-16T05:00:22.031Z,90.00
2019-04-16T05:01:21.306Z,90.00
2019-04-16T05:02:21.344Z,90.00
2019-04-16T05:03:21.357Z,90.00
2019-04-16T05:04:21.454Z,95.62
2019-04-16T05:05:24.727Z,95.62
2019-04-16T05:06:21.164Z,95.62
2019-04-16T05:07:21.256Z,101.25
2019-04-16T05:08:21.199Z,101.25
2019-04-16T05:09:21.144Z,101.25
2019-04-16T05:10:21.200Z,106.88
2019-04-16T05:11:21.148Z,106.88
2019-04-16T05:12:22.158Z,106.88
2019-04-16T05:13:23.906Z,112.50
2019-04-16T05:14:21.097Z,112.50
2019-04-16T05:15:21.098Z,112.50
2019-04-16T05:16:21.081Z,118.12
2019-04-16T05:17:21.085Z,118.12
2019-04-16T05:18:21.118Z,123.75
2019-04-16T05:19:22.543Z,123.75
2019-04-16T05:20:21.029Z,123.75
2019-04-16T05:21:21.225Z,123.75
2019-04-16T05:22:22.046Z,129.38
2019-04-16T05:23:24.901Z,129.38
2019-04-16T05:24:20.973Z,135.00
2019-04-16T05:25:21.533Z,135.00
2019-04-16T05:26:21.025Z,135.00
2019-04-16T05:27:21.037Z,135.00
2019-04-16T05:28:20.962Z,140.62
2019-04-16T05:29:20.989Z,140.62
2019-04-16T05:30:21.887Z,140.62
2019-04-16T05:31:24.310Z,146.25
2019-04-16T05:32:20.957Z,146.25
2019-04-16T05:33:22.535Z,151.88
2019-04-16T05:34:21.042Z,151.88
2019-04-16T05:35:21.079Z,151.88
2019-04-16T05:36:21.777Z,157.50
2019-04-16T05:37:21.535Z,157.50
2019-04-16T05:38:23.564Z,157.50
2019-04-16T05:39:20.796Z,157.50
2019-04-16T05:40:20.870Z,163.12
2019-04-16T05:41:22.773Z,163.12
2019-04-16T05:42:22.394Z,163.12
2019-04-16T05:43:22.378Z,163.12
2019-04-16T05:44:20.764Z,163.12
2019-04-16T05:45:21.560Z,168.75
2019-04-16T05:46:20.726Z,168.75
2019-04-16T05:47:22.591Z,168.75
2019-04-16T05:48:21.627Z,174.38
2019-04-16T05:49:24.602Z,174.38
2019-04-16T05:50:21.696Z,174.38
2019-04-16T05:51:20.698Z,180.00
2019-04-16T05:52:20.836Z,180.00
2019-04-16T05:53:20.689Z,185.62
2019-04-16T05:54:22.134Z,185.62
2019-04-16T05:55:20.663Z,185.62
2019-04-16T05:56:24.055Z,191.25
2019-04-16T05:57:25.676Z,191.25
2019-04-16T05:58:21.678Z,191.25
2019-04-16T05:59:20.617Z,196.88
2019-04-16T06:00:20.620Z,196.88
2019-04-16T06:01:20.576Z,196.88
2019-04-16T06:02:20.597Z,202.50
2019-04-16T06:03:22.342Z,202.50
2019-04-16T06:04:24.263Z,202.50
2019-04-16T06:05:20.675Z,208.12
2019-04-16T06:06:20.571Z,208.12
2019-04-16T06:07:20.497Z,213.75
2019-04-16T06:08:20.495Z,213.75
2019-04-16T06:09:20.491Z,213.75
2019-04-16T06:10:21.035Z,219.38
2019-04-16T06:11:28.722Z,219.38
2019-04-16T06:12:21.491Z,219.38
2019-04-16T06:13:20.478Z,225.00
2019-04-16T06:14:20.435Z,225.00
2019-04-16T06:15:22.325Z,230.62
2019-04-16T06:16:24.327Z,225.00
2019-04-16T06:17:21.502Z,225.00
2019-04-16T06:18:20.396Z,230.62
2019-04-16T06:19:20.436Z,230.62
2019-04-16T06:20:21.725Z,230.62
2019-04-16T06:21:25.026Z,236.25
2019-04-16T06:22:21.362Z,236.25
2019-04-16T06:23:20.583Z,236.25
2019-04-16T06:24:20.723Z,236.25
2019-04-16T06:25:20.419Z,241.88
2019-04-16T06:26:20.344Z,241.88
2019-04-16T06:27:20.336Z,241.88
2019-04-16T06:28:20.373Z,241.88
2019-04-16T06:29:20.302Z,247.50
2019-04-16T06:30:20.282Z,247.50
2019-04-16T06:31:20.448Z,247.50
2019-04-16T06:32:21.195Z,253.12
2019-04-16T06:33:20.249Z,253.12
2019-04-16T06:34:23.453Z,253.12
2019-04-16T06:35:21.046Z,258.75
2019-04-16T06:36:20.453Z,258.75
2019-04-16T06:37:21.591Z,258.75
2019-04-16T06:38:21.214Z,264.38
2019-04-16T06:39:20.177Z,264.38
2019-04-16T06:40:20.201Z,264.38
2019-04-16T06:41:20.185Z,270.00
2019-04-16T06:42:23.085Z,270.00
2019-04-16T06:43:25.318Z,275.62
2019-04-16T06:44:22.554Z,275.62
2019-04-16T06:45:20.327Z,275.62
2019-04-16T06:46:20.177Z,275.62
2019-04-16T06:47:20.150Z,281.25
2019-04-16T06:48:20.308Z,281.25
2019-04-16T06:49:20.325Z,286.88
2019-04-16T06:50:31.293Z,337.50
2019-04-16T06:51:21.116Z,405.00
2019-04-16T06:52:20.933Z,438.75
2019-04-16T06:53:23.537Z,433.12
2019-04-16T06:54:20.085Z,421.88
2019-04-16T06:55:19.989Z,421.88
2019-04-16T06:56:20.731Z,416.25
2019-04-16T06:57:20.349Z,405.00
2019-04-16T06:58:20.009Z,405.00
2019-04-16T06:59:20.007Z,405.00
2019-04-16T07:00:20.262Z,405.00
2019-04-16T07:01:22.287Z,388.12
2019-04-16T07:02:19.992Z,382.50
2019-04-16T07:03:19.956Z,376.88
2019-04-16T07:04:20.550Z,360.00
2019-04-16T07:05:20.116Z,320.62
2019-04-16T07:06:20.545Z,303.75
2019-04-16T07:07:21.855Z,303.75
2019-04-16T07:08:19.993Z,303.75
2019-04-16T07:09:23.416Z,303.75
2019-04-16T07:10:20.910Z,303.75
2019-04-16T07:11:20.632Z,303.75
2019-04-16T07:12:21.007Z,309.38
2019-04-16T07:13:19.885Z,309.38
2019-04-16T07:14:19.821Z,315.00
2019-04-16T07:15:24.407Z,309.38
2019-04-16T07:16:20.809Z,309.38
2019-04-16T07:17:19.806Z,315.00
2019-04-16T07:18:21.127Z,315.00
2019-04-16T07:19:19.949Z,315.00
2019-04-16T07:20:19.725Z,320.62
2019-04-16T07:21:19.760Z,320.62
2019-04-16T07:22:21.277Z,320.62
2019-04-16T07:23:24.276Z,320.62
2019-04-16T07:24:23.112Z,320.62
2019-04-16T07:25:20.003Z,320.62
2019-04-16T07:26:19.676Z,320.62
2019-04-16T07:27:21.050Z,326.25
2019-04-16T07:28:24.649Z,326.25
2019-04-16T07:29:20.770Z,326.25
2019-04-16T07:30:21.198Z,331.88
2019-04-16T07:31:32.974Z,326.25
2019-04-16T07:32:20.744Z,331.88
2019-04-16T07:33:19.624Z,331.88
2019-04-16T07:34:19.594Z,331.88
2019-04-16T07:35:19.601Z,331.88
2019-04-16T07:36:20.645Z,331.88
2019-04-16T07:37:19.561Z,331.88
2019-04-16T07:38:19.662Z,337.50
2019-04-16T07:39:29.389Z,337.50
2019-04-16T07:40:20.659Z,337.50
2019-04-16T07:41:19.539Z,337.50
2019-04-16T07:42:22.246Z,337.50
2019-04-16T07:43:19.596Z,337.50
2019-04-16T07:44:20.312Z,343.12
2019-04-16T07:45:20.421Z,343.12
2019-04-16T07:46:19.494Z,343.12
2019-04-16T07:47:20.174Z,343.12
2019-04-16T07:48:22.564Z,343.12
2019-04-16T07:49:19.602Z,343.12
2019-04-16T07:50:19.468Z,348.75
2019-04-16T07:51:36.912Z,348.75
2019-04-16T07:52:19.397Z,348.75
2019-04-16T07:53:19.419Z,348.75
2019-04-16T07:54:21.782Z,348.75
2019-04-16T07:55:23.710Z,354.38
2019-04-16T07:56:19.346Z,354.38
2019-04-16T07:57:19.349Z,354.38
2019-04-16T07:58:19.350Z,354.38
2019-04-16T07:59:20.074Z,354.38
2019-04-16T08:00:19.482Z,354.38
2019-04-16T08:01:19.527Z,360.00
2019-04-16T08:02:21.391Z,360.00
2019-04-16T08:03:19.298Z,360.00
2019-04-16T08:04:28.497Z,360.00
2019-04-16T08:05:20.299Z,360.00
2019-04-16T08:06:19.361Z,365.62
2019-04-16T08:07:21.248Z,365.62
2019-04-16T08:08:24.379Z,365.62
2019-04-16T08:09:20.226Z,365.62
2019-04-16T08:10:19.229Z,371.25
2019-04-16T08:11:19.207Z,371.25
2019-04-16T08:12:30.115Z,371.25
2019-04-16T08:13:20.189Z,371.25
2019-04-16T08:14:19.165Z,371.25
2019-04-16T08:15:19.171Z,371.25
2019-04-16T08:16:19.233Z,371.25
2019-04-16T08:17:19.154Z,376.88
2019-04-16T08:18:19.241Z,376.88
2019-04-16T08:19:19.094Z,376.88
2019-04-16T08:20:21.037Z,376.88
2019-04-16T08:21:22.287Z,376.88
2019-04-16T08:22:19.090Z,376.88
2019-04-16T08:23:19.632Z,388.12
2019-04-16T08:24:24.345Z,376.88
2019-04-16T08:25:20.092Z,376.88
2019-04-16T08:26:19.045Z,382.50
2019-04-16T08:27:19.473Z,382.50
2019-04-16T08:28:19.367Z,382.50
2019-04-16T08:29:18.984Z,382.50
2019-04-16T08:30:18.999Z,382.50
2019-04-16T08:31:19.007Z,382.50
2019-04-16T08:32:18.964Z,382.50
2019-04-16T08:33:18.953Z,388.12
2019-04-16T08:34:18.958Z,388.12
2019-04-16T08:35:18.930Z,388.12
2019-04-16T08:36:18.962Z,388.12
2019-04-16T08:37:18.935Z,388.12
2019-04-16T08:38:18.923Z,388.12
2019-04-16T08:39:18.943Z,388.12
2019-04-16T08:40:18.890Z,388.12
2019-04-16T08:41:21.378Z,388.12
2019-04-16T08:42:24.237Z,393.75
2019-04-16T08:43:19.849Z,393.75
2019-04-16T08:44:18.844Z,393.75
2019-04-16T08:45:20.578Z,393.75
2019-04-16T08:46:18.831Z,393.75
2019-04-16T08:47:18.823Z,393.75
2019-04-16T08:48:18.986Z,393.75
2019-04-16T08:49:22.154Z,393.75
2019-04-16T08:50:18.773Z,393.75
2019-04-16T08:51:29.573Z,393.75
2019-04-16T08:52:19.767Z,399.38
2019-04-16T08:53:18.750Z,399.38
2019-04-16T08:54:20.727Z,399.38
2019-04-16T08:55:20.435Z,405.00
2019-04-16T08:56:18.761Z,399.38
2019-04-16T08:57:18.789Z,405.00
2019-04-16T08:58:18.726Z,405.00
2019-04-16T08:59:18.719Z,399.38
2019-04-16T09:00:18.679Z,399.38
2019-04-16T09:01:23.096Z,399.38
2019-04-16T09:02:18.686Z,399.38
2019-04-16T09:03:18.670Z,399.38
2019-04-16T09:04:18.645Z,405.00
2019-04-16T09:05:18.618Z,405.00
2019-04-16T09:06:18.725Z,399.38
2019-04-16T09:07:20.852Z,399.38
2019-04-16T09:08:21.843Z,399.38
2019-04-16T09:09:21.709Z,399.38
2019-04-16T09:10:23.268Z,399.38
2019-04-16T09:11:23.454Z,399.38
2019-04-16T09:12:19.559Z,399.38
2019-04-16T09:13:18.547Z,405.00
2019-04-16T09:14:20.997Z,399.38
2019-04-16T09:15:19.519Z,399.38
2019-04-16T09:16:18.500Z,399.38
2019-04-16T09:17:18.508Z,399.38
2019-04-16T09:18:18.538Z,399.38
2019-04-16T09:19:18.499Z,399.38
2019-04-16T09:20:18.449Z,399.38
2019-04-16T09:21:18.464Z,399.38
2019-04-16T09:22:18.431Z,399.38
2019-04-16T09:23:18.507Z,399.38
2019-04-16T09:24:18.415Z,399.38
2019-04-16T09:25:18.406Z,399.38
2019-04-16T09:26:22.571Z,399.38
2019-04-16T09:27:19.432Z,399.38
2019-04-16T09:28:25.766Z,399.38
2019-04-16T09:29:19.363Z,399.38
2019-04-16T09:30:18.370Z,399.38
2019-04-16T09:31:18.790Z,399.38
2019-04-16T09:32:18.351Z,399.38
2019-04-16T09:33:18.389Z,393.75
2019-04-16T09:34:18.328Z,393.75
2019-04-16T09:35:20.150Z,393.75
2019-04-16T09:36:18.292Z,393.75
2019-04-16T09:37:18.264Z,393.75
2019-04-16T09:38:18.256Z,405.00
2019-04-16T09:39:20.374Z,388.12
2019-04-16T09:40:18.610Z,393.75
2019-04-16T09:41:18.335Z,393.75
2019-04-16T09:42:18.225Z,393.75
2019-04-16T09:43:18.574Z,393.75
2019-04-16T09:44:18.213Z,393.75
2019-04-16T09:45:18.199Z,393.75
2019-04-16T09:46:26.622Z,393.75
2019-04-16T09:47:28.930Z,388.12
2019-04-16T09:49:29.294Z,393.75
2019-04-16T09:50:42.945Z,393.75
2019-04-16T09:52:40.407Z,388.12
2019-04-16T09:53:49.741Z,388.12
2019-04-16T09:55:58.170Z,388.12
2019-04-16T09:57:08.449Z,393.75
2019-04-16T09:58:07.502Z,388.12
2019-04-16T09:59:07.558Z,388.12
2019-04-16T09:59:58.967Z,388.12
2019-04-16T10:00:58.180Z,388.12
2019-04-16T10:01:58.964Z,388.12
2019-04-16T10:02:58.104Z,388.12
2019-04-16T10:03:58.118Z,388.12
2019-04-16T10:04:58.170Z,388.12
2019-04-16T10:05:58.095Z,388.12
2019-04-16T10:07:08.102Z,388.12
2019-04-16T10:07:58.339Z,382.50
2019-04-16T10:08:58.390Z,382.50
2019-04-16T10:09:58.415Z,388.12
2019-04-16T10:11:00.902Z,388.12
2019-04-16T10:11:58.067Z,388.12
2019-04-16T10:12:58.038Z,388.12
2019-04-16T10:13:58.000Z,388.12
2019-04-16T10:14:57.977Z,388.12
2019-04-16T10:15:59.005Z,388.12
2019-04-16T10:16:57.982Z,388.12
2019-04-16T10:18:07.240Z,388.12
2019-04-16T10:19:08.529Z,382.50
2019-04-16T10:19:58.145Z,382.50
2019-04-16T10:21:08.424Z,382.50
2019-04-16T10:21:57.969Z,382.50
2019-04-16T10:22:58.007Z,382.50
2019-04-16T10:23:57.911Z,388.12
2019-04-16T10:24:57.935Z,388.12
2019-04-16T10:25:57.956Z,388.12
2019-04-16T10:26:59.935Z,388.12
2019-04-16T10:27:57.846Z,388.12
2019-04-16T10:28:58.627Z,388.12
2019-04-16T10:30:08.392Z,388.12
2019-04-16T10:30:57.829Z,388.12
2019-04-16T10:31:57.878Z,388.12
2019-04-16T10:32:57.842Z,382.50
2019-04-16T10:33:57.770Z,376.88
2019-04-16T10:34:57.790Z,376.88
2019-04-16T10:36:10.367Z,382.50
2019-04-16T10:36:58.699Z,382.50
2019-04-16T10:37:57.797Z,382.50
2019-04-16T10:38:57.739Z,376.88
2019-04-16T10:39:57.745Z,382.50
2019-04-16T10:40:57.713Z,388.12
2019-04-16T10:41:57.749Z,376.88
2019-04-16T10:42:57.697Z,376.88
2019-04-16T10:43:57.725Z,382.50
2019-04-16T10:44:58.206Z,382.50
2019-04-16T10:45:57.702Z,376.88
2019-04-16T10:46:57.641Z,376.88
2019-04-16T10:47:57.635Z,376.88
2019-04-16T10:48:57.794Z,376.88
2019-04-16T10:49:57.649Z,376.88
2019-04-16T10:50:58.044Z,376.88
2019-04-16T10:51:57.668Z,376.88
2019-04-16T10:52:57.589Z,376.88
2019-04-16T10:53:57.575Z,376.88
2019-04-16T10:54:57.716Z,376.88
2019-04-16T10:55:57.544Z,376.88
2019-04-16T10:56:58.381Z,376.88
2019-04-16T10:57:57.536Z,376.88
2019-04-16T10:58:57.554Z,376.88
2019-04-16T10:59:57.577Z,376.88
2019-04-16T11:00:57.553Z,388.12
2019-04-16T11:01:57.586Z,376.88
2019-04-16T11:02:57.531Z,376.88
2019-04-16T11:03:57.463Z,371.25
2019-04-16T11:04:57.544Z,371.25
2019-04-16T11:05:57.850Z,371.25
2019-04-16T11:06:57.472Z,371.25
2019-04-16T11:07:57.451Z,371.25
2019-04-16T11:08:57.473Z,365.62
2019-04-16T11:09:57.496Z,365.62
2019-04-16T11:10:57.390Z,365.62
2019-04-16T11:11:57.387Z,365.62
2019-04-16T11:12:57.376Z,365.62
2019-04-16T11:14:00.106Z,365.62
2019-04-16T11:14:57.367Z,365.62
2019-04-16T11:15:57.386Z,365.62
2019-04-16T11:16:57.315Z,365.62
2019-04-16T11:17:57.352Z,365.62
2019-04-16T11:18:58.183Z,371.25
2019-04-16T11:19:59.922Z,371.25
2019-04-16T11:20:57.308Z,371.25
2019-04-16T11:21:59.905Z,371.25
2019-04-16T11:22:58.288Z,371.25
2019-04-16T11:23:57.272Z,371.25
2019-04-16T11:24:57.243Z,371.25
2019-04-16T11:25:57.240Z,371.25
2019-04-16T11:26:57.222Z,365.62
2019-04-16T11:27:57.235Z,371.25
2019-04-16T11:28:57.235Z,371.25
2019-04-16T11:29:57.204Z,371.25
2019-04-16T11:30:57.194Z,371.25
2019-04-16T11:31:57.174Z,371.25
2019-04-16T11:32:57.164Z,371.25
2019-04-16T11:33:57.166Z,371.25
2019-04-16T11:34:57.115Z,371.25
2019-04-16T11:35:57.129Z,371.25
2019-04-16T11:36:58.530Z,371.25
2019-04-16T11:37:57.129Z,365.62
2019-04-16T11:38:57.055Z,371.25
2019-04-16T11:39:57.057Z,371.25
2019-04-16T11:40:57.062Z,371.25
2019-04-16T11:41:57.088Z,371.25
2019-04-16T11:42:57.022Z,371.25
2019-04-16T11:43:57.122Z,371.25
2019-04-16T11:44:57.009Z,371.25
2019-04-16T11:45:57.050Z,371.25
2019-04-16T11:46:57.009Z,376.88
2019-04-16T11:47:56.971Z,376.88
2019-04-16T11:48:56.965Z,376.88
2019-04-16T11:49:56.963Z,382.50
2019-04-16T11:50:56.957Z,382.50
2019-04-16T11:51:56.959Z,382.50
2019-04-16T11:52:58.392Z,382.50
2019-04-16T11:53:56.945Z,382.50
2019-04-16T11:55:00.485Z,382.50
2019-04-16T11:55:56.888Z,382.50
2019-04-16T11:56:59.340Z,382.50
2019-04-16T11:57:56.886Z,376.88
2019-04-16T11:58:57.607Z,382.50
2019-04-16T12:00:06.493Z,382.50
2019-04-16T12:00:57.890Z,388.12
2019-04-16T12:01:56.872Z,382.50
2019-04-16T12:02:56.887Z,382.50
2019-04-16T12:03:56.812Z,388.12
2019-04-16T12:04:59.233Z,388.12
2019-04-16T12:05:57.308Z,388.12
2019-04-16T12:06:56.805Z,393.75
2019-04-16T12:07:56.835Z,393.75
2019-04-16T12:08:56.799Z,393.75
2019-04-16T12:09:56.796Z,393.75
2019-04-16T12:10:56.750Z,393.75
2019-04-16T12:11:56.736Z,399.38
2019-04-16T12:12:56.708Z,405.00
2019-04-16T12:13:56.738Z,455.62
2019-04-16T12:14:56.722Z,1091.25
2019-04-16T12:15:56.677Z,2958.75
2019-04-16T12:16:56.866Z,4134.38
2019-04-16T12:17:56.703Z,4134.38
2019-04-16T12:18:56.646Z,3791.25
2019-04-16T12:19:56.624Z,3701.25
2019-04-16T12:20:56.633Z,3813.75
2019-04-16T12:21:56.652Z,4123.12
2019-04-16T12:22:56.643Z,4173.75
2019-04-16T12:23:57.237Z,4078.12
2019-04-16T12:24:56.697Z,4196.25
2019-04-16T12:25:56.582Z,3836.25
2019-04-16T12:26:56.593Z,3549.38
2019-04-16T12:27:57.221Z,4066.88
2019-04-16T12:28:56.529Z,4376.25
2019-04-16T12:29:56.551Z,3965.62
2019-04-16T12:30:56.633Z,3791.25
2019-04-16T12:31:56.503Z,3650.62
2019-04-16T12:32:56.523Z,3825.00
2019-04-16T12:33:56.469Z,4156.88
2019-04-16T12:34:56.450Z,4156.88
2019-04-16T12:35:56.470Z,4151.25
2019-04-16T12:36:56.475Z,4128.75
2019-04-16T12:37:56.436Z,4224.38
2019-04-16T12:38:56.433Z,4100.62
2019-04-16T12:39:56.436Z,3813.75
2019-04-16T12:40:56.450Z,3808.12
2019-04-16T12:41:59.911Z,4021.88
2019-04-16T12:42:56.394Z,3909.38
2019-04-16T12:43:56.401Z,3943.12
2019-04-16T12:44:56.451Z,3999.38
2019-04-16T12:45:56.385Z,3853.12
2019-04-16T12:46:56.421Z,3538.12
2019-04-16T12:47:58.993Z,3577.50
2019-04-16T12:48:56.404Z,3853.12